Time;durP1;ratioP1;P1;durP2;ratioP2;P2;SDS_P1;SDS_P2;PMS_P1;PMS_P2;Temp;Humidity;BMP_temperature;BMP_pressure;BME280_temperature;BME280_humidity;BME280_pressure;Samples;Min_cycle;Max_cycle;Signal;HPM_P1;HPM_P2
2023/03/10 00:00:22;;;;;;;;;;;;;;;;;;5093669;28;19957;-69
2023/03/10 00:02:49;;;;;;;;;;;;;;;;;;5093375;28;19954;-67
2023/03/10 00:05:15;;;;;;;;;;;;;;;;;;5093331;28;19953;-69
2023/03/10 00:07:41;;;;;;;;;;;;;;;;;;5093579;28;20412;-68
2023/03/10 00:10:08;;;;;;;;;;;;;;;;;;5093575;28;19966;-68
2023/03/10 00:12:34;;;;;;;;;;;;;;;;;;5074841;28;20352;-69
2023/03/10 00:15:00;;;;;;;;;;;;;;;;;;5094689;28;19973;-68
2023/03/10 00:17:26;;;;;;;;;;;;;;;;;;5096895;28;19953;-69
2023/03/10 00:19:53;;;;;;;;;;;;;;;;;;5097186;28;19952;-69
2023/03/10 00:22:19;;;;;;;;;;;;;;;;;;5078506;28;19956;-68
2023/03/10 00:24:45;;;;;;;;;;;;;;;;;;5097023;28;19960;-68
2023/03/10 00:27:11;;;;;;;;;;;;;;;;;;5096791;28;20020;-70
2023/03/10 00:29:37;;;;;;;;;;;;;;;;;;5097260;28;19951;-69
2023/03/10 00:32:03;;;;;;;;;;;;;;;;;;5096564;28;20024;-71
2023/03/10 00:34:28;;;;;;;;;;;;;;;;;;5096586;28;19957;-70
2023/03/10 00:36:54;;;;;;;;;;;;;;;;;;5096853;28;19996;-68
2023/03/10 00:39:20;;;;;;;;;;;;;;;;;;5096481;28;20077;-69
2023/03/10 00:41:47;;;;;;;;;;;;;;;;;;5096038;28;20427;-68
2023/03/10 00:44:13;;;;;;;;;;;;;;;;;;5096952;28;19954;-67
2023/03/10 00:46:39;;;;;;;;;;;;;;;;;;5096349;28;20087;-70
2023/03/10 00:49:04;;;;;;;;;;;;;;;;;;5096317;28;20420;-71
2023/03/10 00:51:30;;;;;;;;;;;;;;;;;;5096202;28;19985;-69
2023/03/10 00:53:56;;;;;;;;;;;;;;;;;;5096376;28;20021;-70
2023/03/10 00:56:22;;;;;;;;;;;;;;;;;;5096194;28;19953;-69
2023/03/10 00:58:48;;;;;;;;;;;;;;;;;;5096113;28;19956;-69
2023/03/10 01:01:14;;;;;;;;;;;;;;;;;;5096382;28;19959;-69
2023/03/10 01:03:40;;;;;;;;;;;;;;;;;;5095999;28;19998;-69
2023/03/10 01:06:06;;;;;;;;;;;;;;;;;;5096268;28;19964;-68
2023/03/10 01:08:32;;;;;;;;;;;;;;;;;;5096184;28;19956;-68
2023/03/10 01:10:57;;;;;;;;;;;;;;;;;;5095946;28;20328;-68
2023/03/10 01:13:23;;;;;;;;;;;;;;;;;;5095778;28;19974;-69
2023/03/10 01:15:49;;;;;;;;;;;;;;;;;;5096085;28;20411;-68
2023/03/10 01:18:15;;;;;;;;;;;;;;;;;;5095775;28;19952;-68
2023/03/10 01:20:41;;;;;;;;;;;;;;;;;;5095949;28;20330;-67
2023/03/10 01:23:07;;;;;;;;;;;;;;;;;;5096513;28;19952;-69
2023/03/10 01:25:33;;;;;;;;;;;;;;;;;;5095618;28;20462;-70
2023/03/10 01:27:59;;;;;;;;;;;;;;;;;;5094894;28;19974;-68
2023/03/10 01:30:25;;;;;;;;;;;;;;;;;;5096096;28;19947;-68
2023/03/10 01:32:51;;;;;;;;;;;;;;;;;;5095400;28;19976;-68
2023/03/10 01:35:17;;;;;;;;;;;;;;;;;;5095460;28;20000;-68
2023/03/10 01:37:42;;;;;;;;;;;;;;;;;;5095657;28;19950;-68
2023/03/10 01:40:08;;;;;;;;;;;;;;;;;;5095136;28;20095;-69
2023/03/10 01:42:34;;;;;;;;;;;;;;;;;;5095837;28;20042;-71
2023/03/10 01:45:00;;;;;;;;;;;;;;;;;;5095462;28;20318;-67
2023/03/10 01:47:27;;;;;;;;;;;;;;;;;;5095230;28;20048;-71
2023/03/10 01:49:53;;;;;;;;;;;;;;;;;;5095433;28;19958;-68
2023/03/10 01:52:19;;;;;;;;;;;;;;;;;;5095023;28;19968;-69
2023/03/10 01:54:45;;;;;;;;;;;;;;;;;;5095101;28;20419;-67
2023/03/10 01:57:11;;;;;;;;;;;;;;;;;;5094995;28;20053;-70
2023/03/10 01:59:37;;;;;;;;;;;;;;;;;;5095524;28;20397;-67
2023/03/10 02:02:03;;;;;;;;;;;;;;;;;;5094897;28;20006;-68
2023/03/10 02:04:28;;;;;;;;;;;;;;;;;;5095163;28;19989;-69
2023/03/10 02:06:54;;;;;;;;;;;;;;;;;;5094789;28;20070;-68
2023/03/10 02:09:20;;;;;;;;;;;;;;;;;;5095006;28;19955;-69
2023/03/10 02:11:46;;;;;;;;;;;;;;;;;;5095492;28;19966;-67
2023/03/10 02:14:12;;;;;;;;;;;;;;;;;;5094625;28;19967;-68
2023/03/10 02:16:38;;;;;;;;;;;;;;;;;;5094657;28;20426;-68
2023/03/10 02:19:04;;;;;;;;;;;;;;;;;;5094613;28;19955;-69
2023/03/10 02:21:30;;;;;;;;;;;;;;;;;;5094833;28;20006;-68
2023/03/10 02:23:56;;;;;;;;;;;;;;;;;;5094477;28;19956;-68
2023/03/10 02:26:21;;;;;;;;;;;;;;;;;;5094733;28;19953;-69
2023/03/10 02:28:47;;;;;;;;;;;;;;;;;;5094706;28;20351;-68
2023/03/10 02:31:13;;;;;;;;;;;;;;;;;;5094930;28;19954;-69
2023/03/10 02:33:40;;;;;;;;;;;;;;;;;;5094311;28;20016;-68
2023/03/10 02:36:06;;;;;;;;;;;;;;;;;;5094314;28;19973;-70
2023/03/10 02:38:32;;;;;;;;;;;;;;;;;;5093302;28;20396;-69
2023/03/10 02:40:58;;;;;;;;;;;;;;;;;;5094043;28;19988;-68
2023/03/10 02:43:24;;;;;;;;;;;;;;;;;;5094184;28;19959;-69
2023/03/10 02:45:50;;;;;;;;;;;;;;;;;;5094749;28;20357;-69
2023/03/10 02:48:16;;;;;;;;;;;;;;;;;;5094693;28;19952;-70
2023/03/10 02:50:42;;;;;;;;;;;;;;;;;;5094098;28;20045;-69
2023/03/10 02:53:07;;;;;;;;;;;;;;;;;;5093981;28;20022;-70
2023/03/10 02:55:33;;;;;;;;;;;;;;;;;;5094055;28;19949;-69
2023/03/10 02:58:01;;;;;;;;;;;;;;;;;;5094287;28;19948;-69
2023/03/10 03:00:27;;;;;;;;;;;;;;;;;;5093977;28;19947;-69
2023/03/10 03:02:53;;;;;;;;;;;;;;;;;;5094207;28;19955;-68
2023/03/10 03:05:18;;;;;;;;;;;;;;;;;;5093927;28;20374;-69
2023/03/10 03:07:44;;;;;;;;;;;;;;;;;;5093890;28;20035;-68
2023/03/10 03:10:10;;;;;;;;;;;;;;;;;;5093869;28;20297;-68
2023/03/10 03:12:36;;;;;;;;;;;;;;;;;;5093766;28;19975;-69
2023/03/10 03:15:02;;;;;;;;;;;;;;;;;;5093985;28;19970;-70
2023/03/10 03:17:28;;;;;;;;;;;;;;;;;;5093812;28;19958;-68
2023/03/10 03:19:54;;;;;;;;;;;;;;;;;;5094360;28;20310;-67
2023/03/10 03:22:20;;;;;;;;;;;;;;;;;;5093737;28;20470;-66
2023/03/10 03:24:46;;;;;;;;;;;;;;;;;;5093967;28;19951;-68
2023/03/10 03:27:11;;;;;;;;;;;;;;;;;;5093679;28;20297;-70
2023/03/10 03:29:38;;;;;;;;;;;;;;;;;;5093704;28;19957;-68
2023/03/10 03:32:04;;;;;;;;;;;;;;;;;;5075270;28;19954;-69
2023/03/10 03:34:30;;;;;;;;;;;;;;;;;;5093597;28;20067;-68
2023/03/10 03:36:56;;;;;;;;;;;;;;;;;;5093919;28;19988;-69
2023/03/10 03:39:22;;;;;;;;;;;;;;;;;;5093577;28;19952;-69
2023/03/10 03:41:51;;;;;;;;;;;;;;;;;;5093401;28;20334;-71
2023/03/10 03:44:17;;;;;;;;;;;;;;;;;;5093546;28;19951;-69
2023/03/10 03:46:43;;;;;;;;;;;;;;;;;;5094035;28;20415;-68
2023/03/10 03:49:09;;;;;;;;;;;;;;;;;;5093718;28;19961;-69
2023/03/10 03:51:35;;;;;;;;;;;;;;;;;;5097741;28;20401;-71
2023/03/10 03:54:01;;;;;;;;;;;;;;;;;;5097294;28;20373;-69
2023/03/10 03:56:27;;;;;;;;;;;;;;;;;;5097655;28;20299;-70
2023/03/10 03:58:53;;;;;;;;;;;;;;;;;;5097294;28;19952;-69
2023/03/10 04:01:19;;;;;;;;;;;;;;;;;;5097175;28;19980;-69
2023/03/10 04:03:45;;;;;;;;;;;;;;;;;;5097490;28;19989;-68
2023/03/10 04:06:10;;;;;;;;;;;;;;;;;;5097139;28;19963;-68
2023/03/10 04:08:36;;;;;;;;;;;;;;;;;;5097689;28;19949;-69
2023/03/10 04:11:02;;;;;;;;;;;;;;;;;;5097078;28;19958;-69
2023/03/10 04:13:28;;;;;;;;;;;;;;;;;;5097444;28;19973;-69
2023/03/10 04:15:54;;;;;;;;;;;;;;;;;;5096997;28;20007;-69
2023/03/10 04:18:20;;;;;;;;;;;;;;;;;;5096922;28;20008;-69
2023/03/10 04:20:46;;;;;;;;;;;;;;;;;;5097158;28;19949;-68
2023/03/10 04:23:12;;;;;;;;;;;;;;;;;;5096842;28;20419;-70
2023/03/10 04:25:38;;;;;;;;;;;;;;;;;;5097089;28;20000;-67
2023/03/10 04:28:03;;;;;;;;;;;;;;;;;;5096749;28;20055;-67
2023/03/10 04:30:29;;;;;;;;;;;;;;;;;;5096983;28;19957;-70
2023/03/10 04:32:55;;;;;;;;;;;;;;;;;;5096578;28;20443;-70
2023/03/10 04:35:21;;;;;;;;;;;;;;;;;;5097157;28;20287;-69
2023/03/10 04:37:47;;;;;;;;;;;;;;;;;;5096596;28;19960;-69
2023/03/10 04:40:13;;;;;;;;;;;;;;;;;;5096268;28;19990;-70
2023/03/10 04:42:39;;;;;;;;;;;;;;;;;;5097073;28;19958;-68
2023/03/10 04:45:05;;;;;;;;;;;;;;;;;;5096401;28;19976;-68
2023/03/10 04:47:31;;;;;;;;;;;;;;;;;;5096683;28;19957;-69
2023/03/10 04:49:57;;;;;;;;;;;;;;;;;;5096592;28;20420;-68
2023/03/10 04:52:23;;;;;;;;;;;;;;;;;;5096568;28;19971;-68
2023/03/10 04:54:49;;;;;;;;;;;;;;;;;;5096246;28;19957;-69
2023/03/10 04:57:15;;;;;;;;;;;;;;;;;;5096495;28;20316;-68
2023/03/10 04:59:41;;;;;;;;;;;;;;;;;;5096156;28;19961;-69
2023/03/10 05:02:07;;;;;;;;;;;;;;;;;;5095221;28;20053;-70
2023/03/10 05:04:33;;;;;;;;;;;;;;;;;;5096066;28;19960;-69
2023/03/10 05:06:59;;;;;;;;;;;;;;;;;;5096064;28;20403;-68
2023/03/10 05:09:25;;;;;;;;;;;;;;;;;;5096287;28;20001;-67
2023/03/10 05:11:51;;;;;;;;;;;;;;;;;;5095842;28;20000;-68
2023/03/10 05:14:17;;;;;;;;;;;;;;;;;;5095817;28;20016;-68
2023/03/10 05:16:43;;;;;;;;;;;;;;;;;;5096388;28;20304;-67
2023/03/10 05:19:09;;;;;;;;;;;;;;;;;;5095779;28;19990;-69
2023/03/10 05:21:34;;;;;;;;;;;;;;;;;;5095785;28;20006;-69
2023/03/10 05:24:01;;;;;;;;;;;;;;;;;;5095999;28;19992;-69
2023/03/10 05:26:26;;;;;;;;;;;;;;;;;;5095936;28;19959;-69
2023/03/10 05:28:52;;;;;;;;;;;;;;;;;;5096146;28;20307;-70
2023/03/10 05:31:24;;;;;;;;;;;;;;;;;;5095529;28;19953;-67
2023/03/10 05:33:50;;;;;;;;;;;;;;;;;;5095987;28;19973;-68
2023/03/10 05:36:16;;;;;;;;;;;;;;;;;;5095673;28;19956;-69
2023/03/10 05:38:42;;;;;;;;;;;;;;;;;;5095356;28;19956;-68
2023/03/10 05:41:08;;;;;;;;;;;;;;;;;;5095157;28;20033;-69
2023/03/10 05:43:34;;;;;;;;;;;;;;;;;;5095590;28;19959;-67
2023/03/10 05:46:00;;;;;;;;;;;;;;;;;;5095266;28;19996;-69
2023/03/10 05:48:26;;;;;;;;;;;;;;;;;;5095500;28;19953;-67
2023/03/10 05:50:51;;;;;;;;;;;;;;;;;;5095178;28;19975;-69
2023/03/10 05:53:17;;;;;;;;;;;;;;;;;;5095005;28;19971;-68
2023/03/10 05:55:43;;;;;;;;;;;;;;;;;;5095060;28;20048;-67
2023/03/10 05:58:09;;;;;;;;;;;;;;;;;;5095019;28;19953;-68
2023/03/10 06:00:35;;;;;;;;;;;;;;;;;;5076801;28;19964;-69
2023/03/10 06:03:03;;;;;;;;;;;;;;;;;;5094940;28;19951;-69
2023/03/10 06:05:29;;;;;;;;;;;;;;;;;;5094906;28;19958;-68
2023/03/10 06:07:55;;;;;;;;;;;;;;;;;;5095137;28;20041;-67
2023/03/10 06:10:20;;;;;;;;;;;;;;;;;;5094800;28;20345;-69
2023/03/10 06:12:46;;;;;;;;;;;;;;;;;;5094668;28;20488;-68
2023/03/10 06:15:12;;;;;;;;;;;;;;;;;;5094649;28;19998;-68
2023/03/10 06:17:38;;;;;;;;;;;;;;;;;;5095186;28;20351;-70
2023/03/10 06:20:05;;;;;;;;;;;;;;;;;;5094915;28;19952;-68
2023/03/10 06:22:31;;;;;;;;;;;;;;;;;;5095149;28;20023;-69
2023/03/10 06:24:57;;;;;;;;;;;;;;;;;;5095344;28;20399;-69
2023/03/10 06:27:23;;;;;;;;;;;;;;;;;;5094447;28;19975;-70
2023/03/10 06:29:49;;;;;;;;;;;;;;;;;;5094441;28;20047;-68
2023/03/10 06:32:15;;;;;;;;;;;;;;;;;;5094350;28;19973;-70
2023/03/10 06:34:41;;;;;;;;;;;;;;;;;;5094643;28;19953;-69
2023/03/10 06:37:07;;;;;;;;;;;;;;;;;;5094312;28;19954;-68
2023/03/10 06:39:33;;;;;;;;;;;;;;;;;;5094324;28;19954;-69
2023/03/10 06:41:59;;;;;;;;;;;;;;;;;;5094795;28;19987;-68
2023/03/10 06:44:24;;;;;;;;;;;;;;;;;;5094216;28;19952;-68
2023/03/10 06:46:50;;;;;;;;;;;;;;;;;;5094155;28;20335;-67
2023/03/10 06:49:16;;;;;;;;;;;;;;;;;;5076060;28;19962;-68
2023/03/10 06:51:42;;;;;;;;;;;;;;;;;;5076538;28;20134;-70
2023/03/10 06:54:08;;;;;;;;;;;;;;;;;;5094302;28;19978;-68
2023/03/10 06:56:34;;;;;;;;;;;;;;;;;;5094071;28;19985;-69
2023/03/10 06:59:00;;;;;;;;;;;;;;;;;;5094021;28;20005;-69
2023/03/10 07:01:26;;;;;;;;;;;;;;;;;;5094251;28;19954;-67
2023/03/10 07:03:52;;;;;;;;;;;;;;;;;;5094194;28;20424;-67
2023/03/10 07:06:18;;;;;;;;;;;;;;;;;;5093949;28;20326;-68
2023/03/10 07:08:44;;;;;;;;;;;;;;;;;;5094193;28;19952;-69
2023/03/10 07:11:09;;;;;;;;;;;;;;;;;;5093877;28;19960;-69
2023/03/10 07:13:35;;;;;;;;;;;;;;;;;;5075512;28;19978;-69
2023/03/10 07:16:01;;;;;;;;;;;;;;;;;;5094363;28;20037;-69
2023/03/10 07:18:28;;;;;;;;;;;;;;;;;;5093771;28;20410;-68
2023/03/10 07:20:54;;;;;;;;;;;;;;;;;;5093748;28;20409;-68
2023/03/10 07:23:20;;;;;;;;;;;;;;;;;;5094000;28;19963;-70
2023/03/10 07:25:46;;;;;;;;;;;;;;;;;;5096209;28;19951;-67
2023/03/10 07:28:12;;;;;;;;;;;;;;;;;;5098470;28;19954;-68
2023/03/10 07:30:38;;;;;;;;;;;;;;;;;;5079781;28;19962;-69
2023/03/10 07:33:04;;;;;;;;;;;;;;;;;;5098050;28;19984;-68
2023/03/10 07:35:30;;;;;;;;;;;;;;;;;;5097765;28;19958;-66
2023/03/10 07:37:56;;;;;;;;;;;;;;;;;;5097730;28;20331;-68
2023/03/10 07:40:23;;;;;;;;;;;;;;;;;;5097543;28;19996;-67
2023/03/10 07:42:49;;;;;;;;;;;;;;;;;;5097928;28;19984;-68
2023/03/10 07:45:15;;;;;;;;;;;;;;;;;;5097619;28;19998;-68
2023/03/10 07:47:41;;;;;;;;;;;;;;;;;;5098128;28;20471;-69
2023/03/10 07:50:07;;;;;;;;;;;;;;;;;;5097818;28;19960;-69
2023/03/10 07:52:33;;;;;;;;;;;;;;;;;;5097684;28;20363;-69
2023/03/10 07:54:59;;;;;;;;;;;;;;;;;;5097443;28;20462;-67
2023/03/10 07:57:25;;;;;;;;;;;;;;;;;;5097390;28;19952;-70
2023/03/10 07:59:50;;;;;;;;;;;;;;;;;;5097865;28;20294;-70
2023/03/10 08:02:16;;;;;;;;;;;;;;;;;;5097275;28;20412;-67
2023/03/10 08:04:42;;;;;;;;;;;;;;;;;;5097222;28;19963;-70
2023/03/10 08:07:08;;;;;;;;;;;;;;;;;;5097178;28;20437;-68
2023/03/10 08:09:34;;;;;;;;;;;;;;;;;;5097115;28;19951;-69
2023/03/10 08:12:00;;;;;;;;;;;;;;;;;;5097289;28;19980;-68
2023/03/10 08:14:26;;;;;;;;;;;;;;;;;;5097271;28;19976;-66
2023/03/10 08:16:53;;;;;;;;;;;;;;;;;;5097016;28;19961;-68
2023/03/10 08:19:19;;;;;;;;;;;;;;;;;;5096977;28;20420;-67
2023/03/10 08:21:45;;;;;;;;;;;;;;;;;;5097186;28;19957;-70
2023/03/10 08:24:11;;;;;;;;;;;;;;;;;;5097134;28;19957;-68
2023/03/10 08:26:37;;;;;;;;;;;;;;;;;;5097110;28;19950;-68
2023/03/10 08:29:03;;;;;;;;;;;;;;;;;;5096812;28;19953;-68
2023/03/10 08:31:28;;;;;;;;;;;;;;;;;;5096720;28;20466;-68
2023/03/10 08:33:55;;;;;;;;;;;;;;;;;;5096863;28;19976;-68
2023/03/10 08:36:21;;;;;;;;;;;;;;;;;;5096775;28;20047;-69
2023/03/10 08:38:47;;;;;;;;;;;;;;;;;;5097199;28;20394;-69
2023/03/10 08:41:13;;;;;;;;;;;;;;;;;;5096272;28;19987;-68
2023/03/10 08:43:39;;;;;;;;;;;;;;;;;;5096547;28;20062;-69
2023/03/10 08:46:06;;;;;;;;;;;;;;;;;;5095977;28;20273;-71
2023/03/10 08:48:32;;;;;;;;;;;;;;;;;;5096424;28;19999;-69
2023/03/10 08:50:58;;;;;;;;;;;;;;;;;;5096921;28;20400;-68
2023/03/10 08:53:24;;;;;;;;;;;;;;;;;;5096279;28;19972;-69
2023/03/10 08:55:50;;;;;;;;;;;;;;;;;;5096511;28;19959;-69
2023/03/10 08:58:16;;;;;;;;;;;;;;;;;;5097038;28;19951;-67
2023/03/10 09:00:41;;;;;;;;;;;;;;;;;;5096205;28;20054;-67
2023/03/10 09:03:09;;;;;;;;;;;;;;;;;;5096427;28;19960;-69
2023/03/10 09:05:35;;;;;;;;;;;;;;;;;;5096391;28;20040;-67
2023/03/10 09:08:01;;;;;;;;;;;;;;;;;;5077849;28;19997;-67
2023/03/10 09:10:27;;;;;;;;;;;;;;;;;;5095988;28;19958;-68
2023/03/10 09:12:53;;;;;;;;;;;;;;;;;;5096135;28;19968;-69
2023/03/10 09:15:19;;;;;;;;;;;;;;;;;;5095798;28;20017;-67
2023/03/10 09:17:45;;;;;;;;;;;;;;;;;;5095808;28;19951;-68
2023/03/10 09:20:11;;;;;;;;;;;;;;;;;;5095835;28;19996;-69
2023/03/10 09:22:37;;;;;;;;;;;;;;;;;;5095766;28;19952;-70
2023/03/10 09:25:03;;;;;;;;;;;;;;;;;;5095974;28;19961;-69
2023/03/10 09:27:28;;;;;;;;;;;;;;;;;;5095610;28;20000;-70
2023/03/10 09:29:54;;;;;;;;;;;;;;;;;;5095620;28;19950;-68
2023/03/10 09:32:20;;;;;;;;;;;;;;;;;;5095507;28;19977;-69
2023/03/10 09:34:46;;;;;;;;;;;;;;;;;;5096009;28;19952;-72
2023/03/10 09:37:12;;;;;;;;;;;;;;;;;;5095734;28;20038;-73
2023/03/10 09:39:38;;;;;;;;;;;;;;;;;;5095341;28;19949;-73
2023/03/10 09:42:04;;;;;;;;;;;;;;;;;;5095978;28;20411;-76
2023/03/10 09:44:30;;;;;;;;;;;;;;;;;;5095308;28;19950;-73
2023/03/10 09:46:56;;;;;;;;;;;;;;;;;;5095513;28;19989;-73
2023/03/10 09:49:22;;;;;;;;;;;;;;;;;;5094695;28;19952;-76
2023/03/10 09:51:47;;;;;;;;;;;;;;;;;;5095024;28;20002;-73
2023/03/10 09:54:13;;;;;;;;;;;;;;;;;;5095216;28;19973;-78
2023/03/10 09:56:39;;;;;;;;;;;;;;;;;;5095235;28;19955;-78
2023/03/10 09:59:07;;;;;;;;;;;;;;;;;;5094993;28;20335;-70
2023/03/10 10:01:32;;;;;;;;;;;;;;;;;;5095005;28;19951;-71
2023/03/10 10:03:58;;;;;;;;;;;;;;;;;;5094981;28;20417;-72
2023/03/10 10:06:24;;;;;;;;;;;;;;;;;;5094918;28;19953;-77
2023/03/10 10:08:50;;;;;;;;;;;;;;;;;;5095122;28;19961;-75
2023/03/10 10:11:16;;;;;;;;;;;;;;;;;;5095071;28;19953;-75
2023/03/10 10:13:42;;;;;;;;;;;;;;;;;;5094652;28;19983;-72
2023/03/10 10:16:08;;;;;;;;;;;;;;;;;;5094771;28;20373;-71
2023/03/10 10:18:34;;;;;;;;;;;;;;;;;;5095260;28;20414;-73
2023/03/10 10:21:00;;;;;;;;;;;;;;;;;;5094929;28;20046;-75
2023/03/10 10:23:26;;;;;;;;;;;;;;;;;;5094627;28;19952;-75
2023/03/10 10:25:53;;;;;;;;;;;;;;;;;;5094553;28;20005;-75
2023/03/10 10:28:19;;;;;;;;;;;;;;;;;;5094082;28;19959;-74
2023/03/10 10:30:45;;;;;;;;;;;;;;;;;;5094463;28;19947;-75
2023/03/10 10:33:11;;;;;;;;;;;;;;;;;;5094374;28;20342;-74
2023/03/10 10:35:37;;;;;;;;;;;;;;;;;;5094989;28;20316;-74
2023/03/10 10:38:03;;;;;;;;;;;;;;;;;;5094401;28;19957;-74
2023/03/10 10:40:29;;;;;;;;;;;;;;;;;;5094262;28;19988;-74
2023/03/10 10:42:55;;;;;;;;;;;;;;;;;;5094303;28;19961;-74
2023/03/10 10:45:20;;;;;;;;;;;;;;;;;;5094208;28;19959;-74
2023/03/10 10:47:48;;;;;;;;;;;;;;;;;;5094162;28;19960;-74
2023/03/10 10:50:13;;;;;;;;;;;;;;;;;;5094734;28;20324;-75
2023/03/10 10:52:39;;;;;;;;;;;;;;;;;;5094022;28;19980;-75
2023/03/10 10:55:05;;;;;;;;;;;;;;;;;;5094073;28;19954;-75
2023/03/10 10:57:31;;;;;;;;;;;;;;;;;;5094292;28;20362;-75
2023/03/10 10:59:57;;;;;;;;;;;;;;;;;;5093255;28;19952;-75
2023/03/10 11:02:23;;;;;;;;;;;;;;;;;;5094963;28;20005;-75
2023/03/10 11:04:49;;;;;;;;;;;;;;;;;;5094090;28;19996;-75
2023/03/10 11:07:16;;;;;;;;;;;;;;;;;;5075790;28;19958;-75
2023/03/10 11:09:42;;;;;;;;;;;;;;;;;;5094469;28;19952;-74
2023/03/10 11:12:08;;;;;;;;;;;;;;;;;;5093792;28;19959;-75
2023/03/10 11:14:34;;;;;;;;;;;;;;;;;;5093737;28;19967;-75
2023/03/10 11:17:01;;;;;;;;;;;;;;;;;;5094363;28;19959;-75
2023/03/10 11:19:27;;;;;;;;;;;;;;;;;;5093736;28;20405;-75
2023/03/10 11:21:54;;;;;;;;;;;;;;;;;;5094392;28;19958;-74
2023/03/10 11:24:20;;;;;;;;;;;;;;;;;;5093978;28;19961;-75
2023/03/10 11:26:46;;;;;;;;;;;;;;;;;;5093698;28;20296;-74
2023/03/10 11:29:12;;;;;;;;;;;;;;;;;;5093692;28;19998;-75
2023/03/10 11:31:38;;;;;;;;;;;;;;;;;;5093689;28;20324;-74
2023/03/10 11:34:04;;;;;;;;;;;;;;;;;;5093537;28;20066;-74
2023/03/10 11:36:30;;;;;;;;;;;;;;;;;;5093893;28;20060;-75
2023/03/10 11:38:57;;;;;;;;;;;;;;;;;;5093900;28;19953;-74
2023/03/10 11:41:23;;;;;;;;;;;;;;;;;;5093166;28;20369;-75
2023/03/10 11:43:49;;;;;;;;;;;;;;;;;;5093656;28;20002;-75
2023/03/10 11:46:15;;;;;;;;;;;;;;;;;;5094120;28;20450;-75
2023/03/10 11:48:41;;;;;;;;;;;;;;;;;;5093489;28;19959;-74
2023/03/10 11:51:07;;;;;;;;;;;;;;;;;;5093769;28;20036;-75
2023/03/10 11:53:33;;;;;;;;;;;;;;;;;;5093453;28;20478;-75
2023/03/10 11:55:59;;;;;;;;;;;;;;;;;;5093723;28;19960;-74
2023/03/10 11:58:24;;;;;;;;;;;;;;;;;;5093424;28;19951;-74
2023/03/10 12:00:52;;;;;;;;;;;;;;;;;;5093385;28;19956;-75
2023/03/10 12:03:18;;;;;;;;;;;;;;;;;;5093395;28;20419;-74
2023/03/10 12:05:44;;;;;;;;;;;;;;;;;;5093367;28;20003;-74
2023/03/10 12:08:10;;;;;;;;;;;;;;;;;;5075221;28;19953;-75
2023/03/10 12:10:36;;;;;;;;;;;;;;;;;;5094226;28;20047;-74
2023/03/10 12:13:03;;;;;;;;;;;;;;;;;;5097303;28;20050;-74
2023/03/10 12:15:31;;;;;;;;;;;;;;;;;;5096953;28;19967;-75
2023/03/10 12:17:57;;;;;;;;;;;;;;;;;;5097252;28;20387;-74
2023/03/10 12:20:23;;;;;;;;;;;;;;;;;;5097209;28;20040;-75
2023/03/10 12:22:52;;;;;;;;;;;;;;;;;;5096959;28;19951;-74
2023/03/10 12:25:17;;;;;;;;;;;;;;;;;;5096900;28;19958;-75
2023/03/10 12:27:43;;;;;;;;;;;;;;;;;;5096835;28;20318;-74
2023/03/10 12:30:10;;;;;;;;;;;;;;;;;;5096803;28;19960;-75
2023/03/10 12:32:36;;;;;;;;;;;;;;;;;;5097016;28;20022;-74
2023/03/10 12:35:02;;;;;;;;;;;;;;;;;;5096723;28;19952;-74
2023/03/10 12:37:29;;;;;;;;;;;;;;;;;;5096644;28;19990;-75
2023/03/10 12:39:55;;;;;;;;;;;;;;;;;;5096849;28;20390;-74
2023/03/10 12:42:21;;;;;;;;;;;;;;;;;;5097185;28;20000;-75
2023/03/10 12:44:47;;;;;;;;;;;;;;;;;;5096723;28;19954;-75
2023/03/10 12:47:14;;;;;;;;;;;;;;;;;;5096483;28;20414;-75
2023/03/10 12:49:40;;;;;;;;;;;;;;;;;;5096435;28;20463;-75
2023/03/10 12:52:09;;;;;;;;;;;;;;;;;;5096397;28;20007;-75
2023/03/10 12:54:35;;;;;;;;;;;;;;;;;;5096315;28;19962;-74
2023/03/10 12:57:01;;;;;;;;;;;;;;;;;;5096558;28;19956;-74
2023/03/10 12:59:27;;;;;;;;;;;;;;;;;;5096218;28;19952;-75
2023/03/10 13:01:53;;;;;;;;;;;;;;;;;;5096442;28;19951;-75
2023/03/10 13:04:18;;;;;;;;;;;;;;;;;;5096108;28;20459;-74
2023/03/10 13:06:44;;;;;;;;;;;;;;;;;;5096093;28;20030;-74
2023/03/10 13:09:10;;;;;;;;;;;;;;;;;;5096298;28;20298;-75
2023/03/10 13:11:36;;;;;;;;;;;;;;;;;;5096012;28;19957;-74
2023/03/10 13:14:02;;;;;;;;;;;;;;;;;;5096062;28;19982;-74
2023/03/10 13:16:28;;;;;;;;;;;;;;;;;;5096168;28;19980;-74
2023/03/10 13:18:54;;;;;;;;;;;;;;;;;;5096407;28;19982;-75
2023/03/10 13:21:20;;;;;;;;;;;;;;;;;;5095804;28;20507;-75
2023/03/10 13:23:45;;;;;;;;;;;;;;;;;;5094805;28;19951;-75
2023/03/10 13:26:11;;;;;;;;;;;;;;;;;;5096251;28;19953;-75
2023/03/10 13:28:38;;;;;;;;;;;;;;;;;;5095731;28;19963;-74
2023/03/10 13:31:04;;;;;;;;;;;;;;;;;;5096205;28;19953;-75
2023/03/10 13:33:30;;;;;;;;;;;;;;;;;;5095765;28;19976;-74
2023/03/10 13:35:56;;;;;;;;;;;;;;;;;;5096120;28;19956;-74
2023/03/10 13:38:25;;;;;;;;;;;;;;;;;;5096291;28;20043;-75
2023/03/10 13:40:51;;;;;;;;;;;;;;;;;;5095259;28;19997;-74
2023/03/10 13:43:17;;;;;;;;;;;;;;;;;;5095634;28;19951;-74
2023/03/10 13:45:43;;;;;;;;;;;;;;;;;;5095593;28;20382;-75
2023/03/10 13:48:09;;;;;;;;;;;;;;;;;;5095278;28;20001;-75
2023/03/10 13:50:35;;;;;;;;;;;;;;;;;;5095252;28;20419;-75
2023/03/10 13:53:03;;;;;;;;;;;;;;;;;;5095041;28;19977;-74
2023/03/10 13:55:29;;;;;;;;;;;;;;;;;;5095105;28;19949;-75
2023/03/10 13:57:55;;;;;;;;;;;;;;;;;;5095348;28;19960;-74
2023/03/10 14:00:21;;;;;;;;;;;;;;;;;;5095032;28;19965;-75
2023/03/10 14:02:46;;;;;;;;;;;;;;;;;;5095265;28;19952;-74
2023/03/10 14:05:12;;;;;;;;;;;;;;;;;;5094947;28;20089;-74
2023/03/10 14:07:38;;;;;;;;;;;;;;;;;;5095454;28;19952;-74
2023/03/10 14:10:08;;;;;;;;;;;;;;;;;;5094848;28;19950;-74
2023/03/10 14:12:34;;;;;;;;;;;;;;;;;;5094744;28;19973;-75
2023/03/10 14:15:00;;;;;;;;;;;;;;;;;;5095261;28;20024;-74
2023/03/10 14:17:26;;;;;;;;;;;;;;;;;;5094755;28;19952;-73
2023/03/10 14:19:52;;;;;;;;;;;;;;;;;;5095275;28;19987;-74
2023/03/10 14:22:18;;;;;;;;;;;;;;;;;;5094659;28;19960;-74
2023/03/10 14:24:44;;;;;;;;;;;;;;;;;;5095148;28;20011;-74
2023/03/10 14:27:11;;;;;;;;;;;;;;;;;;5094572;28;19952;-74
2023/03/10 14:29:37;;;;;;;;;;;;;;;;;;5076320;28;20365;-74
2023/03/10 14:32:03;;;;;;;;;;;;;;;;;;5094258;28;19950;-75
2023/03/10 14:34:29;;;;;;;;;;;;;;;;;;5094461;28;19975;-74
2023/03/10 14:36:55;;;;;;;;;;;;;;;;;;5094376;28;20416;-75
2023/03/10 14:39:21;;;;;;;;;;;;;;;;;;5076214;28;19965;-75
2023/03/10 14:41:47;;;;;;;;;;;;;;;;;;5094125;28;19985;-77
2023/03/10 14:44:13;;;;;;;;;;;;;;;;;;5094333;28;20342;-75
2023/03/10 14:46:39;;;;;;;;;;;;;;;;;;5094476;28;20047;-76
2023/03/10 14:49:04;;;;;;;;;;;;;;;;;;5094174;28;20383;-77
2023/03/10 14:51:30;;;;;;;;;;;;;;;;;;5094190;28;19965;-72
2023/03/10 14:53:56;;;;;;;;;;;;;;;;;;5094003;28;19976;-77
2023/03/10 14:56:22;;;;;;;;;;;;;;;;;;5094625;28;20311;-73
2023/03/10 14:58:48;;;;;;;;;;;;;;;;;;5094044;28;19951;-77
2023/03/10 15:01:14;;;;;;;;;;;;;;;;;;5094021;28;19961;-77
2023/03/10 15:03:40;;;;;;;;;;;;;;;;;;5094519;28;20406;-76
2023/03/10 15:06:06;;;;;;;;;;;;;;;;;;5093986;28;19952;-74
2023/03/10 15:08:32;;;;;;;;;;;;;;;;;;5094441;28;19953;-74
2023/03/10 15:10:58;;;;;;;;;;;;;;;;;;5093891;28;19949;-75
2023/03/10 15:13:23;;;;;;;;;;;;;;;;;;5094008;28;19979;-77
2023/03/10 15:15:49;;;;;;;;;;;;;;;;;;5093893;28;19952;-75
2023/03/10 15:18:15;;;;;;;;;;;;;;;;;;5093836;28;20040;-74
2023/03/10 15:20:41;;;;;;;;;;;;;;;;;;5094339;28;20304;-78
2023/03/10 15:23:07;;;;;;;;;;;;;;;;;;5093765;28;20396;-80
2023/03/10 15:25:33;;;;;;;;;;;;;;;;;;5093716;28;19999;-75
2023/03/10 15:27:59;;;;;;;;;;;;;;;;;;5093882;28;19953;-75
2023/03/10 15:30:25;;;;;;;;;;;;;;;;;;5093683;28;19995;-75
2023/03/10 15:32:51;;;;;;;;;;;;;;;;;;5093567;28;20469;-78
2023/03/10 15:35:17;;;;;;;;;;;;;;;;;;5093619;28;20114;-74
2023/03/10 15:37:42;;;;;;;;;;;;;;;;;;5093896;28;19954;-74
2023/03/10 15:40:08;;;;;;;;;;;;;;;;;;5093445;28;20042;-75
2023/03/10 15:42:34;;;;;;;;;;;;;;;;;;5094152;28;20477;-73
2023/03/10 15:45:03;;;;;;;;;;;;;;;;;;5094362;28;19955;-76
2023/03/10 15:47:29;;;;;;;;;;;;;;;;;;5078875;28;19956;-76
2023/03/10 15:49:55;;;;;;;;;;;;;;;;;;5097885;28;19952;-74
2023/03/10 15:52:22;;;;;;;;;;;;;;;;;;5097680;28;19958;-77
2023/03/10 15:54:48;;;;;;;;;;;;;;;;;;5097532;28;20406;-76
2023/03/10 15:57:14;;;;;;;;;;;;;;;;;;5097475;28;19949;-78
2023/03/10 15:59:40;;;;;;;;;;;;;;;;;;5098504;28;19995;-76
2023/03/10 16:02:05;;;;;;;;;;;;;;;;;;5097674;28;20014;-75
2023/03/10 16:04:31;;;;;;;;;;;;;;;;;;5097759;28;19951;-76
2023/03/10 16:06:57;;;;;;;;;;;;;;;;;;5097871;28;20390;-74
2023/03/10 16:09:23;;;;;;;;;;;;;;;;;;5097236;28;19955;-78
2023/03/10 16:11:49;;;;;;;;;;;;;;;;;;5097253;28;19946;-77
2023/03/10 16:14:15;;;;;;;;;;;;;;;;;;5097574;28;20356;-77
2023/03/10 16:16:41;;;;;;;;;;;;;;;;;;5097119;28;19962;-74
2023/03/10 16:19:07;;;;;;;;;;;;;;;;;;5097302;28;19952;-74
2023/03/10 16:21:32;;;;;;;;;;;;;;;;;;5097206;28;20330;-74
2023/03/10 16:23:58;;;;;;;;;;;;;;;;;;5096962;28;19955;-72
2023/03/10 16:26:24;;;;;;;;;;;;;;;;;;5096959;28;20001;-72
2023/03/10 16:28:51;;;;;;;;;;;;;;;;;;5097352;28;19953;-74
2023/03/10 16:31:18;;;;;;;;;;;;;;;;;;5096787;28;20042;-74
2023/03/10 16:33:44;;;;;;;;;;;;;;;;;;5097100;28;19971;-73
2023/03/10 16:36:10;;;;;;;;;;;;;;;;;;5097341;28;20038;-73